Aérodrome :







RETROUVEZ-NOUS SUR...

 
LOGIN :

S'inscrire | Disclaimer

   EN    FR    IT 

 









Légende :    VFR   VFR Marginal   IFR   IFR Intensif   IFR Très Intensif
Visi : 
Plafond : 
>= 8 km
>= 3000ft
5 à 8 km
1000 à 3000 ft
1500m à 5 km
500 à 1000 ft
800 à 1500m
200 à 500 ft
< 800m
< 200 ft
Symboles :   Orages  Brouillard  Fortes neiges  Fortes précipitations  Vent > 20 kt






- Altitude de l'aérodrome : 58 ft
- Code IATA : POS


TTPP - Piarco Int.

DERNIER METAR :
  • 301000Z 00000KT 9999 FEW016 23/20 Q1013 NOSIG

METARs EXPIRÉS :
  • 300900Z 00000KT 9999 FEW016 23/20 Q1012 NOSIG
  • 300800Z 00000KT 9999 FEW016 24/21 Q1012 NOSIG

TAF TAF TTPP
Valide du 30 à 06h jusqu'au 31 à 06h UTC


300400Z 3006/3106 09005KT 9999 FEW016
PROB30
TEMPO 3010/3015 SHRA BKN016
BECMG 3012/3014 11012KT SCT022
BECMG 3100/3102 09005KT FEW016



MET'MAP, la Météo Aéronautique d'un coup d'oeil ! - Copyright ORBIFLY Décembre 2007 - Disclaimer

ORBIFLY MET'MAP TEAM :

Programmation & Développement : Alexandra Zaïnal
Sur une idée originale de : Baudouin d'Aumeries
Assistance à la programmation : Marc-Olivier Méhu
Soutien technique & logistique : Manuel Goepfert

Contact : metmap@orbifly.com




SOURCES & CREDITS :

   NOAA